sensor_id;sensor_type;location;lat;lon;timestamp;P1;durP1;ratioP1;P2;durP2;ratioP2
28613;SDS011;15806;53.548;9.964;2023-07-13T00:00:02;4.73;;;1.00;;
28613;SDS011;15806;53.548;9.964;2023-07-13T00:01:43;5.70;;;1.40;;
28613;SDS011;15806;53.548;9.964;2023-07-13T00:03:23;2.60;;;0.97;;
28613;SDS011;15806;53.548;9.964;2023-07-13T00:05:04;9.57;;;1.47;;
28613;SDS011;15806;53.548;9.964;2023-07-13T00:06:45;2.03;;;1.00;;
28613;SDS011;15806;53.548;9.964;2023-07-13T00:10:10;4.53;;;1.25;;
28613;SDS011;15806;53.548;9.964;2023-07-13T00:11:51;5.83;;;1.20;;
28613;SDS011;15806;53.548;9.964;2023-07-13T00:13:33;4.22;;;1.20;;
28613;SDS011;15806;53.548;9.964;2023-07-13T00:15:18;3.40;;;1.50;;
28613;SDS011;15806;53.548;9.964;2023-07-13T00:17:00;4.93;;;1.35;;
28613;SDS011;15806;53.548;9.964;2023-07-13T00:18:41;5.27;;;1.00;;
28613;SDS011;15806;53.548;9.964;2023-07-13T00:20:22;3.23;;;1.37;;
28613;SDS011;15806;53.548;9.964;2023-07-13T00:22:03;3.15;;;1.23;;
28613;SDS011;15806;53.548;9.964;2023-07-13T00:23:44;6.80;;;1.20;;
28613;SDS011;15806;53.548;9.964;2023-07-13T00:25:24;3.40;;;1.30;;
28613;SDS011;15806;53.548;9.964;2023-07-13T00:27:05;4.63;;;1.37;;
28613;SDS011;15806;53.548;9.964;2023-07-13T00:28:46;4.40;;;1.60;;
28613;SDS011;15806;53.548;9.964;2023-07-13T00:30:26;2.77;;;1.10;;
28613;SDS011;15806;53.548;9.964;2023-07-13T00:32:08;3.27;;;1.43;;
28613;SDS011;15806;53.548;9.964;2023-07-13T00:33:49;4.78;;;1.42;;
28613;SDS011;15806;53.548;9.964;2023-07-13T00:35:30;11.10;;;3.33;;
28613;SDS011;15806;53.548;9.964;2023-07-13T00:37:11;2.97;;;1.33;;
28613;SDS011;15806;53.548;9.964;2023-07-13T00:38:51;4.80;;;1.50;;
28613;SDS011;15806;53.548;9.964;2023-07-13T00:40:32;5.03;;;1.47;;
28613;SDS011;15806;53.548;9.964;2023-07-13T00:42:13;6.17;;;1.63;;
28613;SDS011;15806;53.548;9.964;2023-07-13T00:43:53;7.40;;;1.70;;
28613;SDS011;15806;53.548;9.964;2023-07-13T00:47:34;1.98;;;1.50;;
28613;SDS011;15806;53.548;9.964;2023-07-13T00:49:16;6.17;;;1.70;;
28613;SDS011;15806;53.548;9.964;2023-07-13T00:50:59;4.65;;;1.73;;
28613;SDS011;15806;53.548;9.964;2023-07-13T00:52:41;3.45;;;1.65;;
28613;SDS011;15806;53.548;9.964;2023-07-13T00:54:38;4.53;;;1.88;;
28613;SDS011;15806;53.548;9.964;2023-07-13T00:56:21;3.58;;;2.03;;
28613;SDS011;15806;53.548;9.964;2023-07-13T00:58:02;6.07;;;1.60;;
28613;SDS011;15806;53.548;9.964;2023-07-13T00:59:44;5.27;;;1.93;;
28613;SDS011;15806;53.548;9.964;2023-07-13T01:01:27;3.30;;;1.88;;
28613;SDS011;15806;53.548;9.964;2023-07-13T01:03:07;5.47;;;1.97;;
28613;SDS011;15806;53.548;9.964;2023-07-13T01:04:48;6.17;;;2.10;;
28613;SDS011;15806;53.548;9.964;2023-07-13T01:06:29;6.27;;;2.33;;
28613;SDS011;15806;53.548;9.964;2023-07-13T01:08:09;6.27;;;2.07;;
28613;SDS011;15806;53.548;9.964;2023-07-13T01:09:50;6.57;;;2.20;;
28613;SDS011;15806;53.548;9.964;2023-07-13T01:11:31;5.23;;;2.03;;
28613;SDS011;15806;53.548;9.964;2023-07-13T01:13:11;4.23;;;2.20;;
28613;SDS011;15806;53.548;9.964;2023-07-13T01:14:56;5.00;;;2.40;;
28613;SDS011;15806;53.548;9.964;2023-07-13T01:16:38;11.85;;;2.67;;
28613;SDS011;15806;53.548;9.964;2023-07-13T01:18:22;3.20;;;2.00;;
28613;SDS011;15806;53.548;9.964;2023-07-13T01:20:05;5.55;;;2.83;;
28613;SDS011;15806;53.548;9.964;2023-07-13T01:21:49;5.30;;;2.67;;
28613;SDS011;15806;53.548;9.964;2023-07-13T01:23:31;11.95;;;2.47;;
28613;SDS011;15806;53.548;9.964;2023-07-13T01:25:12;7.40;;;2.40;;
28613;SDS011;15806;53.548;9.964;2023-07-13T01:26:52;4.67;;;2.40;;
28613;SDS011;15806;53.548;9.964;2023-07-13T01:28:33;8.53;;;2.90;;
28613;SDS011;15806;53.548;9.964;2023-07-13T01:30:15;4.90;;;2.57;;
28613;SDS011;15806;53.548;9.964;2023-07-13T01:31:55;3.78;;;2.00;;
28613;SDS011;15806;53.548;9.964;2023-07-13T01:33:39;4.83;;;2.30;;
28613;SDS011;15806;53.548;9.964;2023-07-13T01:35:20;4.60;;;2.28;;
28613;SDS011;15806;53.548;9.964;2023-07-13T01:37:01;3.77;;;1.73;;
28613;SDS011;15806;53.548;9.964;2023-07-13T01:38:41;8.50;;;2.33;;
28613;SDS011;15806;53.548;9.964;2023-07-13T01:42:40;5.43;;;1.98;;
28613;SDS011;15806;53.548;9.964;2023-07-13T01:44:21;5.03;;;2.05;;
28613;SDS011;15806;53.548;9.964;2023-07-13T01:46:01;8.13;;;2.50;;
28613;SDS011;15806;53.548;9.964;2023-07-13T01:47:42;3.90;;;2.30;;
28613;SDS011;15806;53.548;9.964;2023-07-13T01:49:22;6.57;;;2.17;;
28613;SDS011;15806;53.548;9.964;2023-07-13T01:51:03;6.77;;;2.17;;
28613;SDS011;15806;53.548;9.964;2023-07-13T01:52:43;9.00;;;2.40;;
28613;SDS011;15806;53.548;9.964;2023-07-13T01:54:24;5.77;;;1.93;;
28613;SDS011;15806;53.548;9.964;2023-07-13T01:56:04;5.47;;;2.50;;
28613;SDS011;15806;53.548;9.964;2023-07-13T01:57:45;6.70;;;2.80;;
28613;SDS011;15806;53.548;9.964;2023-07-13T01:59:25;3.60;;;2.40;;
28613;SDS011;15806;53.548;9.964;2023-07-13T02:01:06;3.53;;;2.27;;
28613;SDS011;15806;53.548;9.964;2023-07-13T02:02:46;4.27;;;2.20;;
28613;SDS011;15806;53.548;9.964;2023-07-13T02:04:27;6.73;;;2.57;;
28613;SDS011;15806;53.548;9.964;2023-07-13T02:06:07;6.07;;;2.23;;
28613;SDS011;15806;53.548;9.964;2023-07-13T02:07:48;9.23;;;2.53;;
28613;SDS011;15806;53.548;9.964;2023-07-13T02:09:28;6.20;;;2.70;;
28613;SDS011;15806;53.548;9.964;2023-07-13T02:11:09;9.17;;;2.80;;
28613;SDS011;15806;53.548;9.964;2023-07-13T02:12:50;6.17;;;2.53;;
28613;SDS011;15806;53.548;9.964;2023-07-13T02:14:31;3.67;;;2.47;;
28613;SDS011;15806;53.548;9.964;2023-07-13T02:16:11;22.40;;;3.07;;
28613;SDS011;15806;53.548;9.964;2023-07-13T02:17:52;7.73;;;2.67;;
28613;SDS011;15806;53.548;9.964;2023-07-13T02:19:32;4.10;;;2.57;;
28613;SDS011;15806;53.548;9.964;2023-07-13T02:21:13;8.33;;;2.50;;
28613;SDS011;15806;53.548;9.964;2023-07-13T02:22:53;6.47;;;2.40;;
28613;SDS011;15806;53.548;9.964;2023-07-13T02:24:34;8.13;;;3.43;;
28613;SDS011;15806;53.548;9.964;2023-07-13T02:26:14;6.93;;;2.37;;
28613;SDS011;15806;53.548;9.964;2023-07-13T02:27:56;4.75;;;2.45;;
28613;SDS011;15806;53.548;9.964;2023-07-13T02:29:36;6.13;;;2.23;;
28613;SDS011;15806;53.548;9.964;2023-07-13T02:31:17;7.97;;;2.47;;
28613;SDS011;15806;53.548;9.964;2023-07-13T02:32:57;4.20;;;2.33;;
28613;SDS011;15806;53.548;9.964;2023-07-13T02:34:38;4.60;;;2.87;;
28613;SDS011;15806;53.548;9.964;2023-07-13T02:36:18;5.20;;;2.50;;
28613;SDS011;15806;53.548;9.964;2023-07-13T02:37:59;8.97;;;2.60;;
28613;SDS011;15806;53.548;9.964;2023-07-13T02:39:39;6.23;;;2.17;;
28613;SDS011;15806;53.548;9.964;2023-07-13T02:41:20;3.93;;;2.20;;
28613;SDS011;15806;53.548;9.964;2023-07-13T02:43:01;3.33;;;2.37;;
28613;SDS011;15806;53.548;9.964;2023-07-13T02:46:22;3.92;;;2.35;;
28613;SDS011;15806;53.548;9.964;2023-07-13T02:48:03;6.87;;;2.83;;
28613;SDS011;15806;53.548;9.964;2023-07-13T02:49:44;5.93;;;2.07;;
28613;SDS011;15806;53.548;9.964;2023-07-13T02:51:24;7.30;;;2.70;;
28613;SDS011;15806;53.548;9.964;2023-07-13T02:53:05;7.03;;;2.50;;
28613;SDS011;15806;53.548;9.964;2023-07-13T02:54:46;7.33;;;2.67;;
28613;SDS011;15806;53.548;9.964;2023-07-13T02:56:27;8.13;;;3.40;;
28613;SDS011;15806;53.548;9.964;2023-07-13T02:58:08;5.78;;;2.97;;
28613;SDS011;15806;53.548;9.964;2023-07-13T02:59:49;11.97;;;2.87;;
28613;SDS011;15806;53.548;9.964;2023-07-13T03:01:29;5.33;;;2.80;;
28613;SDS011;15806;53.548;9.964;2023-07-13T03:03:10;6.83;;;2.50;;
28613;SDS011;15806;53.548;9.964;2023-07-13T03:04:51;5.40;;;2.37;;
28613;SDS011;15806;53.548;9.964;2023-07-13T03:06:31;6.43;;;2.43;;
28613;SDS011;15806;53.548;9.964;2023-07-13T03:08:12;5.00;;;2.60;;
28613;SDS011;15806;53.548;9.964;2023-07-13T03:09:55;7.70;;;2.50;;
28613;SDS011;15806;53.548;9.964;2023-07-13T03:11:36;6.35;;;2.40;;
28613;SDS011;15806;53.548;9.964;2023-07-13T03:13:17;3.40;;;1.93;;
28613;SDS011;15806;53.548;9.964;2023-07-13T03:14:57;4.63;;;2.13;;
28613;SDS011;15806;53.548;9.964;2023-07-13T03:16:38;4.10;;;2.07;;
28613;SDS011;15806;53.548;9.964;2023-07-13T03:18:18;5.77;;;2.37;;
28613;SDS011;15806;53.548;9.964;2023-07-13T03:19:59;9.23;;;2.87;;
28613;SDS011;15806;53.548;9.964;2023-07-13T03:21:39;8.70;;;2.53;;
28613;SDS011;15806;53.548;9.964;2023-07-13T03:23:20;3.30;;;1.90;;
28613;SDS011;15806;53.548;9.964;2023-07-13T03:25:01;11.45;;;2.35;;
28613;SDS011;15806;53.548;9.964;2023-07-13T03:26:42;5.47;;;2.53;;
28613;SDS011;15806;53.548;9.964;2023-07-13T03:28:22;3.63;;;2.20;;
28613;SDS011;15806;53.548;9.964;2023-07-13T03:30:03;5.70;;;2.50;;
28613;SDS011;15806;53.548;9.964;2023-07-13T03:31:45;6.85;;;2.28;;
28613;SDS011;15806;53.548;9.964;2023-07-13T03:33:25;7.27;;;2.07;;
28613;SDS011;15806;53.548;9.964;2023-07-13T03:35:06;10.60;;;2.07;;
28613;SDS011;15806;53.548;9.964;2023-07-13T03:36:48;4.40;;;1.90;;
28613;SDS011;15806;53.548;9.964;2023-07-13T03:38:28;4.00;;;1.97;;
28613;SDS011;15806;53.548;9.964;2023-07-13T03:40:09;5.23;;;2.43;;
28613;SDS011;15806;53.548;9.964;2023-07-13T03:41:50;2.53;;;1.92;;
28613;SDS011;15806;53.548;9.964;2023-07-13T03:43:31;7.57;;;2.50;;
28613;SDS011;15806;53.548;9.964;2023-07-13T03:45:11;7.47;;;2.00;;
28613;SDS011;15806;53.548;9.964;2023-07-13T03:46:52;5.13;;;2.03;;
28613;SDS011;15806;53.548;9.964;2023-07-13T03:48:32;4.90;;;1.97;;
28613;SDS011;15806;53.548;9.964;2023-07-13T03:50:13;5.23;;;1.83;;
28613;SDS011;15806;53.548;9.964;2023-07-13T03:51:53;5.47;;;2.00;;
28613;SDS011;15806;53.548;9.964;2023-07-13T03:53:37;4.10;;;1.93;;
28613;SDS011;15806;53.548;9.964;2023-07-13T03:55:18;7.80;;;1.90;;
28613;SDS011;15806;53.548;9.964;2023-07-13T03:56:59;4.03;;;1.80;;
28613;SDS011;15806;53.548;9.964;2023-07-13T03:58:40;6.40;;;1.77;;
28613;SDS011;15806;53.548;9.964;2023-07-13T04:00:21;4.90;;;1.77;;
28613;SDS011;15806;53.548;9.964;2023-07-13T04:02:02;5.30;;;1.73;;
28613;SDS011;15806;53.548;9.964;2023-07-13T04:03:43;4.40;;;1.93;;
28613;SDS011;15806;53.548;9.964;2023-07-13T04:05:23;4.00;;;1.60;;
28613;SDS011;15806;53.548;9.964;2023-07-13T04:07:04;1.70;;;1.40;;
28613;SDS011;15806;53.548;9.964;2023-07-13T04:08:44;2.50;;;1.77;;
28613;SDS011;15806;53.548;9.964;2023-07-13T04:10:25;4.00;;;1.67;;
28613;SDS011;15806;53.548;9.964;2023-07-13T04:12:05;5.80;;;1.93;;
28613;SDS011;15806;53.548;9.964;2023-07-13T04:13:46;3.33;;;1.80;;
28613;SDS011;15806;53.548;9.964;2023-07-13T04:15:28;6.53;;;2.33;;
28613;SDS011;15806;53.548;9.964;2023-07-13T04:17:10;6.93;;;2.35;;
28613;SDS011;15806;53.548;9.964;2023-07-13T04:18:50;3.37;;;1.73;;
28613;SDS011;15806;53.548;9.964;2023-07-13T04:20:31;7.35;;;1.75;;
28613;SDS011;15806;53.548;9.964;2023-07-13T04:22:12;8.87;;;2.17;;
28613;SDS011;15806;53.548;9.964;2023-07-13T04:23:52;5.33;;;2.00;;
28613;SDS011;15806;53.548;9.964;2023-07-13T04:25:33;7.63;;;1.97;;
28613;SDS011;15806;53.548;9.964;2023-07-13T04:27:14;5.20;;;2.67;;
28613;SDS011;15806;53.548;9.964;2023-07-13T04:28:54;3.27;;;1.80;;
28613;SDS011;15806;53.548;9.964;2023-07-13T04:30:35;2.97;;;1.88;;
28613;SDS011;15806;53.548;9.964;2023-07-13T04:32:16;4.27;;;1.93;;
28613;SDS011;15806;53.548;9.964;2023-07-13T04:33:56;3.67;;;1.63;;
28613;SDS011;15806;53.548;9.964;2023-07-13T04:35:37;5.57;;;2.38;;
28613;SDS011;15806;53.548;9.964;2023-07-13T04:37:17;8.10;;;2.73;;
28613;SDS011;15806;53.548;9.964;2023-07-13T04:38:58;10.90;;;2.10;;
28613;SDS011;15806;53.548;9.964;2023-07-13T04:40:39;5.57;;;2.90;;
28613;SDS011;15806;53.548;9.964;2023-07-13T04:42:19;6.53;;;2.27;;
28613;SDS011;15806;53.548;9.964;2023-07-13T04:44:00;7.30;;;2.10;;
28613;SDS011;15806;53.548;9.964;2023-07-13T04:45:40;8.47;;;2.33;;
28613;SDS011;15806;53.548;9.964;2023-07-13T04:47:21;4.72;;;2.42;;
28613;SDS011;15806;53.548;9.964;2023-07-13T04:49:02;6.50;;;3.13;;
28613;SDS011;15806;53.548;9.964;2023-07-13T04:50:43;7.55;;;2.60;;
28613;SDS011;15806;53.548;9.964;2023-07-13T04:52:24;5.73;;;2.23;;
28613;SDS011;15806;53.548;9.964;2023-07-13T04:54:04;7.93;;;2.73;;
28613;SDS011;15806;53.548;9.964;2023-07-13T04:55:45;10.13;;;2.33;;
28613;SDS011;15806;53.548;9.964;2023-07-13T04:57:26;4.30;;;2.40;;
28613;SDS011;15806;53.548;9.964;2023-07-13T04:59:07;7.85;;;1.80;;
28613;SDS011;15806;53.548;9.964;2023-07-13T05:00:47;5.83;;;1.90;;
28613;SDS011;15806;53.548;9.964;2023-07-13T05:02:28;6.68;;;2.38;;
28613;SDS011;15806;53.548;9.964;2023-07-13T05:04:09;6.40;;;1.90;;
28613;SDS011;15806;53.548;9.964;2023-07-13T05:06:00;6.43;;;2.30;;
28613;SDS011;15806;53.548;9.964;2023-07-13T05:07:43;10.05;;;2.53;;
28613;SDS011;15806;53.548;9.964;2023-07-13T05:09:23;4.47;;;2.43;;
28613;SDS011;15806;53.548;9.964;2023-07-13T05:11:04;10.43;;;2.47;;
28613;SDS011;15806;53.548;9.964;2023-07-13T05:12:45;5.63;;;1.97;;
28613;SDS011;15806;53.548;9.964;2023-07-13T05:14:25;7.83;;;2.30;;
28613;SDS011;15806;53.548;9.964;2023-07-13T05:16:06;11.83;;;3.23;;
28613;SDS011;15806;53.548;9.964;2023-07-13T05:17:47;9.67;;;2.67;;
28613;SDS011;15806;53.548;9.964;2023-07-13T05:19:28;7.93;;;2.00;;
28613;SDS011;15806;53.548;9.964;2023-07-13T05:21:09;3.67;;;2.20;;
28613;SDS011;15806;53.548;9.964;2023-07-13T05:22:50;5.95;;;1.70;;
28613;SDS011;15806;53.548;9.964;2023-07-13T05:24:31;8.87;;;2.23;;
28613;SDS011;15806;53.548;9.964;2023-07-13T05:26:11;5.10;;;2.40;;
28613;SDS011;15806;53.548;9.964;2023-07-13T05:27:52;5.73;;;2.87;;
28613;SDS011;15806;53.548;9.964;2023-07-13T05:29:32;9.37;;;1.43;;
28613;SDS011;15806;53.548;9.964;2023-07-13T05:31:13;10.80;;;3.07;;
28613;SDS011;15806;53.548;9.964;2023-07-13T05:32:54;7.63;;;2.67;;
28613;SDS011;15806;53.548;9.964;2023-07-13T05:34:34;16.53;;;2.77;;
28613;SDS011;15806;53.548;9.964;2023-07-13T05:36:15;12.10;;;3.87;;
28613;SDS011;15806;53.548;9.964;2023-07-13T05:37:57;6.43;;;1.93;;
28613;SDS011;15806;53.548;9.964;2023-07-13T05:39:37;12.07;;;3.08;;
28613;SDS011;15806;53.548;9.964;2023-07-13T05:41:18;7.47;;;2.73;;
28613;SDS011;15806;53.548;9.964;2023-07-13T05:42:58;14.40;;;3.43;;
28613;SDS011;15806;53.548;9.964;2023-07-13T05:44:39;15.33;;;2.80;;
28613;SDS011;15806;53.548;9.964;2023-07-13T05:46:19;8.70;;;3.03;;
28613;SDS011;15806;53.548;9.964;2023-07-13T05:48:00;11.97;;;2.43;;
28613;SDS011;15806;53.548;9.964;2023-07-13T05:49:40;10.53;;;3.07;;
28613;SDS011;15806;53.548;9.964;2023-07-13T05:51:21;5.43;;;1.93;;
28613;SDS011;15806;53.548;9.964;2023-07-13T05:53:01;15.03;;;3.20;;
28613;SDS011;15806;53.548;9.964;2023-07-13T05:54:42;10.90;;;2.60;;
28613;SDS011;15806;53.548;9.964;2023-07-13T05:56:23;9.53;;;2.90;;
28613;SDS011;15806;53.548;9.964;2023-07-13T05:58:03;7.70;;;2.70;;
28613;SDS011;15806;53.548;9.964;2023-07-13T05:59:44;11.93;;;2.90;;
28613;SDS011;15806;53.548;9.964;2023-07-13T06:01:24;14.73;;;2.97;;
28613;SDS011;15806;53.548;9.964;2023-07-13T06:03:05;14.07;;;3.13;;
28613;SDS011;15806;53.548;9.964;2023-07-13T06:04:46;13.25;;;3.42;;
28613;SDS011;15806;53.548;9.964;2023-07-13T06:06:26;8.17;;;3.10;;
28613;SDS011;15806;53.548;9.964;2023-07-13T06:08:07;5.17;;;1.90;;
28613;SDS011;15806;53.548;9.964;2023-07-13T06:09:48;5.67;;;2.37;;
28613;SDS011;15806;53.548;9.964;2023-07-13T06:11:28;10.63;;;2.63;;
28613;SDS011;15806;53.548;9.964;2023-07-13T06:13:09;9.40;;;2.60;;
28613;SDS011;15806;53.548;9.964;2023-07-13T06:14:49;10.33;;;3.10;;
28613;SDS011;15806;53.548;9.964;2023-07-13T06:16:30;8.27;;;2.40;;
28613;SDS011;15806;53.548;9.964;2023-07-13T06:18:10;10.37;;;2.93;;
28613;SDS011;15806;53.548;9.964;2023-07-13T06:19:51;10.77;;;2.77;;
28613;SDS011;15806;53.548;9.964;2023-07-13T06:21:31;12.37;;;3.23;;
28613;SDS011;15806;53.548;9.964;2023-07-13T06:23:12;5.87;;;1.93;;
28613;SDS011;15806;53.548;9.964;2023-07-13T06:24:52;8.20;;;2.40;;
28613;SDS011;15806;53.548;9.964;2023-07-13T06:26:33;8.00;;;2.20;;
28613;SDS011;15806;53.548;9.964;2023-07-13T06:28:14;6.77;;;2.17;;
28613;SDS011;15806;53.548;9.964;2023-07-13T06:29:54;8.03;;;2.53;;
28613;SDS011;15806;53.548;9.964;2023-07-13T06:31:35;7.57;;;2.47;;
28613;SDS011;15806;53.548;9.964;2023-07-13T06:33:15;10.73;;;2.43;;
28613;SDS011;15806;53.548;9.964;2023-07-13T06:34:56;17.83;;;3.43;;
28613;SDS011;15806;53.548;9.964;2023-07-13T06:36:36;11.00;;;2.53;;
28613;SDS011;15806;53.548;9.964;2023-07-13T06:38:17;12.43;;;2.63;;
28613;SDS011;15806;53.548;9.964;2023-07-13T06:39:57;6.53;;;2.07;;
28613;SDS011;15806;53.548;9.964;2023-07-13T06:41:38;17.63;;;2.57;;
28613;SDS011;15806;53.548;9.964;2023-07-13T06:43:18;6.23;;;1.97;;
28613;SDS011;15806;53.548;9.964;2023-07-13T06:44:59;6.00;;;2.70;;
28613;SDS011;15806;53.548;9.964;2023-07-13T06:46:39;6.00;;;2.67;;
28613;SDS011;15806;53.548;9.964;2023-07-13T06:48:19;8.97;;;2.07;;
28613;SDS011;15806;53.548;9.964;2023-07-13T06:50:00;10.53;;;2.53;;
28613;SDS011;15806;53.548;9.964;2023-07-13T06:51:41;16.13;;;2.17;;
28613;SDS011;15806;53.548;9.964;2023-07-13T06:53:22;7.20;;;2.17;;
28613;SDS011;15806;53.548;9.964;2023-07-13T06:55:03;8.77;;;2.38;;
28613;SDS011;15806;53.548;9.964;2023-07-13T06:56:43;5.85;;;1.88;;
28613;SDS011;15806;53.548;9.964;2023-07-13T06:58:24;6.43;;;2.40;;
28613;SDS011;15806;53.548;9.964;2023-07-13T07:00:05;7.30;;;2.33;;
28613;SDS011;15806;53.548;9.964;2023-07-13T07:01:46;7.22;;;2.22;;
28613;SDS011;15806;53.548;9.964;2023-07-13T07:03:26;12.23;;;2.87;;
28613;SDS011;15806;53.548;9.964;2023-07-13T07:05:07;12.57;;;2.73;;
28613;SDS011;15806;53.548;9.964;2023-07-13T07:06:47;9.90;;;2.40;;
28613;SDS011;15806;53.548;9.964;2023-07-13T07:08:28;13.17;;;2.17;;
28613;SDS011;15806;53.548;9.964;2023-07-13T07:10:08;12.27;;;2.67;;
28613;SDS011;15806;53.548;9.964;2023-07-13T07:11:49;6.73;;;2.37;;
28613;SDS011;15806;53.548;9.964;2023-07-13T07:13:29;13.17;;;1.87;;
28613;SDS011;15806;53.548;9.964;2023-07-13T07:15:10;12.13;;;3.07;;
28613;SDS011;15806;53.548;9.964;2023-07-13T07:16:51;9.43;;;1.73;;
28613;SDS011;15806;53.548;9.964;2023-07-13T07:18:31;11.50;;;1.80;;
28613;SDS011;15806;53.548;9.964;2023-07-13T07:20:12;10.07;;;1.87;;
28613;SDS011;15806;53.548;9.964;2023-07-13T07:21:52;12.83;;;3.50;;
28613;SDS011;15806;53.548;9.964;2023-07-13T07:23:33;12.00;;;2.37;;
28613;SDS011;15806;53.548;9.964;2023-07-13T07:25:13;8.07;;;2.03;;
28613;SDS011;15806;53.548;9.964;2023-07-13T07:26:54;12.27;;;1.97;;
28613;SDS011;15806;53.548;9.964;2023-07-13T07:28:34;7.37;;;2.10;;
28613;SDS011;15806;53.548;9.964;2023-07-13T07:30:15;14.10;;;2.03;;
28613;SDS011;15806;53.548;9.964;2023-07-13T07:31:55;6.70;;;1.80;;
28613;SDS011;15806;53.548;9.964;2023-07-13T07:33:36;9.10;;;1.70;;
28613;SDS011;15806;53.548;9.964;2023-07-13T07:35:17;6.60;;;1.90;;
28613;SDS011;15806;53.548;9.964;2023-07-13T07:36:59;10.03;;;1.70;;
28613;SDS011;15806;53.548;9.964;2023-07-13T07:38:40;8.23;;;3.65;;
28613;SDS011;15806;53.548;9.964;2023-07-13T07:40:21;10.73;;;1.83;;
28613;SDS011;15806;53.548;9.964;2023-07-13T07:42:02;13.13;;;2.40;;
28613;SDS011;15806;53.548;9.964;2023-07-13T07:43:42;9.03;;;3.00;;
28613;SDS011;15806;53.548;9.964;2023-07-13T07:45:23;3.97;;;1.73;;
28613;SDS011;15806;53.548;9.964;2023-07-13T07:47:03;4.77;;;1.87;;
28613;SDS011;15806;53.548;9.964;2023-07-13T07:48:44;10.60;;;1.70;;
28613;SDS011;15806;53.548;9.964;2023-07-13T07:50:25;6.77;;;1.40;;
28613;SDS011;15806;53.548;9.964;2023-07-13T07:52:06;10.30;;;2.00;;
28613;SDS011;15806;53.548;9.964;2023-07-13T07:53:47;8.23;;;2.13;;
28613;SDS011;15806;53.548;9.964;2023-07-13T07:55:28;12.95;;;1.90;;
28613;SDS011;15806;53.548;9.964;2023-07-13T07:57:09;9.33;;;1.73;;
28613;SDS011;15806;53.548;9.964;2023-07-13T07:58:49;4.93;;;1.30;;
28613;SDS011;15806;53.548;9.964;2023-07-13T08:00:30;9.77;;;2.30;;
28613;SDS011;15806;53.548;9.964;2023-07-13T08:02:11;6.57;;;2.00;;
28613;SDS011;15806;53.548;9.964;2023-07-13T08:03:51;7.30;;;1.63;;
28613;SDS011;15806;53.548;9.964;2023-07-13T08:05:32;8.03;;;1.40;;
28613;SDS011;15806;53.548;9.964;2023-07-13T08:07:15;10.10;;;1.95;;
28613;SDS011;15806;53.548;9.964;2023-07-13T08:08:56;6.33;;;1.60;;
28613;SDS011;15806;53.548;9.964;2023-07-13T08:10:36;5.90;;;1.50;;
28613;SDS011;15806;53.548;9.964;2023-07-13T08:12:17;6.57;;;1.90;;
28613;SDS011;15806;53.548;9.964;2023-07-13T08:13:57;9.07;;;1.57;;
28613;SDS011;15806;53.548;9.964;2023-07-13T08:15:38;5.37;;;1.33;;
28613;SDS011;15806;53.548;9.964;2023-07-13T08:17:18;8.80;;;1.73;;
28613;SDS011;15806;53.548;9.964;2023-07-13T08:19:00;6.65;;;1.73;;
28613;SDS011;15806;53.548;9.964;2023-07-13T08:20:40;6.73;;;2.10;;
28613;SDS011;15806;53.548;9.964;2023-07-13T08:22:21;3.27;;;1.47;;
28613;SDS011;15806;53.548;9.964;2023-07-13T08:24:01;7.57;;;1.47;;
28613;SDS011;15806;53.548;9.964;2023-07-13T08:25:42;5.43;;;1.53;;
28613;SDS011;15806;53.548;9.964;2023-07-13T08:27:23;7.43;;;1.47;;
28613;SDS011;15806;53.548;9.964;2023-07-13T08:29:05;5.57;;;1.65;;
28613;SDS011;15806;53.548;9.964;2023-07-13T08:30:46;8.38;;;1.60;;
28613;SDS011;15806;53.548;9.964;2023-07-13T08:32:27;5.90;;;1.80;;
28613;SDS011;15806;53.548;9.964;2023-07-13T08:34:07;7.33;;;2.60;;
28613;SDS011;15806;53.548;9.964;2023-07-13T08:35:48;10.80;;;1.90;;
28613;SDS011;15806;53.548;9.964;2023-07-13T08:37:29;5.47;;;1.60;;
28613;SDS011;15806;53.548;9.964;2023-07-13T08:39:09;5.57;;;1.60;;
28613;SDS011;15806;53.548;9.964;2023-07-13T08:40:51;3.33;;;1.70;;
28613;SDS011;15806;53.548;9.964;2023-07-13T08:46:43;6.72;;;1.77;;
28613;SDS011;15806;53.548;9.964;2023-07-13T08:48:30;7.78;;;1.67;;
28613;SDS011;15806;53.548;9.964;2023-07-13T08:50:17;5.88;;;1.70;;
28613;SDS011;15806;53.548;9.964;2023-07-13T08:53:43;9.70;;;1.50;;
28613;SDS011;15806;53.548;9.964;2023-07-13T08:55:29;5.90;;;1.35;;
28613;SDS011;15806;53.548;9.964;2023-07-13T08:57:14;6.35;;;1.35;;
28613;SDS011;15806;53.548;9.964;2023-07-13T08:59:13;3.80;;;1.20;;
28613;SDS011;15806;53.548;9.964;2023-07-13T09:01:02;4.53;;;1.40;;
28613;SDS011;15806;53.548;9.964;2023-07-13T09:03:02;6.80;;;1.75;;
28613;SDS011;15806;53.548;9.964;2023-07-13T09:04:49;3.97;;;1.40;;
28613;SDS011;15806;53.548;9.964;2023-07-13T09:06:39;9.75;;;1.60;;
28613;SDS011;15806;53.548;9.964;2023-07-13T09:08:45;4.55;;;1.25;;
28613;SDS011;15806;53.548;9.964;2023-07-13T09:14:43;4.00;;;1.50;;
28613;SDS011;15806;53.548;9.964;2023-07-13T09:16:30;4.07;;;1.42;;
28613;SDS011;15806;53.548;9.964;2023-07-13T09:18:16;6.20;;;1.55;;
28613;SDS011;15806;53.548;9.964;2023-07-13T09:20:44;4.13;;;1.58;;
28613;SDS011;15806;53.548;9.964;2023-07-13T09:22:31;4.80;;;1.17;;
28613;SDS011;15806;53.548;9.964;2023-07-13T09:26:33;7.60;;;1.38;;
28613;SDS011;15806;53.548;9.964;2023-07-13T09:28:22;3.57;;;0.90;;
28613;SDS011;15806;53.548;9.964;2023-07-13T09:32:01;9.93;;;2.42;;
28613;SDS011;15806;53.548;9.964;2023-07-13T09:33:46;5.05;;;1.50;;
28613;SDS011;15806;53.548;9.964;2023-07-13T09:35:28;4.03;;;1.23;;
28613;SDS011;15806;53.548;9.964;2023-07-13T09:37:09;3.45;;;0.93;;
28613;SDS011;15806;53.548;9.964;2023-07-13T09:38:54;4.35;;;1.23;;
28613;SDS011;15806;53.548;9.964;2023-07-13T09:42:59;6.75;;;1.17;;
28613;SDS011;15806;53.548;9.964;2023-07-13T09:44:54;7.82;;;2.05;;
28613;SDS011;15806;53.548;9.964;2023-07-13T09:46:36;5.10;;;1.30;;
28613;SDS011;15806;53.548;9.964;2023-07-13T09:48:18;4.53;;;1.23;;
28613;SDS011;15806;53.548;9.964;2023-07-13T09:50:00;3.15;;;1.00;;
28613;SDS011;15806;53.548;9.964;2023-07-13T09:51:43;4.00;;;1.15;;
28613;SDS011;15806;53.548;9.964;2023-07-13T09:57:17;6.28;;;1.42;;
28613;SDS011;15806;53.548;9.964;2023-07-13T09:58:59;3.97;;;1.33;;
28613;SDS011;15806;53.548;9.964;2023-07-13T10:00:39;4.27;;;1.20;;
28613;SDS011;15806;53.548;9.964;2023-07-13T10:04:12;5.72;;;1.40;;
28613;SDS011;15806;53.548;9.964;2023-07-13T10:05:54;10.15;;;1.30;;
28613;SDS011;15806;53.548;9.964;2023-07-13T10:07:42;3.47;;;0.98;;
28613;SDS011;15806;53.548;9.964;2023-07-13T10:09:24;5.22;;;1.25;;
28613;SDS011;15806;53.548;9.964;2023-07-13T10:12:58;4.97;;;1.38;;
28613;SDS011;15806;53.548;9.964;2023-07-13T10:14:39;8.38;;;1.48;;
28613;SDS011;15806;53.548;9.964;2023-07-13T10:16:21;3.85;;;1.30;;
28613;SDS011;15806;53.548;9.964;2023-07-13T10:18:04;5.95;;;1.15;;
28613;SDS011;15806;53.548;9.964;2023-07-13T10:19:44;3.50;;;1.10;;
28613;SDS011;15806;53.548;9.964;2023-07-13T10:21:30;4.13;;;1.20;;
28613;SDS011;15806;53.548;9.964;2023-07-13T10:23:15;5.95;;;1.42;;
28613;SDS011;15806;53.548;9.964;2023-07-13T10:25:16;3.95;;;1.55;;
28613;SDS011;15806;53.548;9.964;2023-07-13T10:28:43;8.90;;;1.20;;
28613;SDS011;15806;53.548;9.964;2023-07-13T10:32:09;4.43;;;1.10;;
28613;SDS011;15806;53.548;9.964;2023-07-13T10:33:52;5.55;;;1.58;;
28613;SDS011;15806;53.548;9.964;2023-07-13T10:35:34;1.83;;;0.88;;
28613;SDS011;15806;53.548;9.964;2023-07-13T10:37:43;2.45;;;0.98;;
28613;SDS011;15806;53.548;9.964;2023-07-13T10:39:26;4.38;;;1.27;;
28613;SDS011;15806;53.548;9.964;2023-07-13T10:41:10;4.00;;;0.98;;
28613;SDS011;15806;53.548;9.964;2023-07-13T10:42:56;3.63;;;1.20;;
28613;SDS011;15806;53.548;9.964;2023-07-13T10:44:39;7.50;;;1.25;;
28613;SDS011;15806;53.548;9.964;2023-07-13T10:46:20;6.03;;;1.43;;